»·PEaware :: SWA462 KSMF-KBUR

SWA462 :: KSMF-KBUR

FLIGHT INFORMATION

Flight Status: Arrived
Operator:
Southwest Airlines
More flights by this operator :: More flights under this callsign
Pilot: Justin R. (12299)
Aircraft: BOEING 737-800
(B738)
More flights by this aircraft type
Origin: KSMF Sacramento Intl
United States
Destination: KBUR Bob Hope-Burbank
United States
More flights between these airports :: More routes between these airports
Route: +FTHIL2 FRA REBRG ROKKR2
File this flight plan on PilotEdge
Remarks:
Altitude:
(Current/Filed)
310ft
Speed:
(Current/Filed)
300kts
Departed: 15-Apr-18 08:44 PM
Arrived: 15-Apr-18 09:47 PM
Distance/Time
Traveled:
312nm/1:03
Distance/Time
To Go:
Arrived

Flight Plot

Page will automatically refresh every two minutes.

Flight plan parsing failed; only flown route is shown


Map Options




Map Legend


Flown Route
Filed Route
Departure Airport
Arrival Airport
Navaid (VOR, NDB)
Fix

Horizontal Profiles

Position Reports

Time Latitude Longitude Heading Altitude Ground
Speed
15-Apr-18 20:31 38.696348 -121.595159 155 31ft 0kts
15-Apr-18 20:32 38.696348 -121.595159 155 31ft 0kts
15-Apr-18 20:33 38.696348 -121.595159 155 31ft 0kts
15-Apr-18 20:34 38.696348 -121.595159 155 31ft 0kts
15-Apr-18 20:35 38.696348 -121.595159 155 31ft 0kts
15-Apr-18 20:36 38.696629 -121.595317 159 31ft 3kts
15-Apr-18 20:37 38.697033 -121.595118 246 31ft 0kts
15-Apr-18 20:38 38.697033 -121.595118 246 31ft 0kts
15-Apr-18 20:39 38.696988 -121.595260 249 31ft 4kts
15-Apr-18 20:40 38.697030 -121.597960 276 31ft 14kts
15-Apr-18 20:41 38.702811 -121.598512 0 31ft 28kts
15-Apr-18 20:42 38.707208 -121.599695 270 31ft 15kts
15-Apr-18 20:43 38.683077 -121.600892 176 404ft 203kts
15-Apr-18 20:44 38.637169 -121.557644 126 4331ft 245kts
15-Apr-18 20:45 38.605255 -121.493809 128 7335ft 257kts
15-Apr-18 20:46 38.571731 -121.426986 129 9211ft 276kts
15-Apr-18 20:47 38.530611 -121.345316 130 10882ft 290kts
15-Apr-18 20:48 38.488164 -121.261013 131 12516ft 296kts
15-Apr-18 20:49 38.444247 -121.174054 132 14304ft 304kts
15-Apr-18 20:50 38.398288 -121.083286 133 16187ft 310kts
15-Apr-18 20:51 38.351723 -120.991520 134 18052ft 317kts
15-Apr-18 20:52 38.304003 -120.898190 134 19670ft 348kts
15-Apr-18 20:53 38.250349 -120.793361 134 22073ft 370kts
15-Apr-18 20:54 38.202843 -120.700594 135 24057ft 385kts
15-Apr-18 20:55 38.145649 -120.589227 136 26158ft 402kts
15-Apr-18 20:56 38.086682 -120.474674 136 28057ft 418kts
15-Apr-18 20:57 38.023491 -120.355851 139 29957ft 427kts
15-Apr-18 20:58 37.956003 -120.235425 142 30979ft 443kts
15-Apr-18 20:59 37.864636 -120.153994 163 30979ft 423kts
15-Apr-18 21:00 37.769121 -120.083534 163 30954ft 421kts
15-Apr-18 21:01 37.671966 -120.011717 163 30948ft 421kts
15-Apr-18 21:02 37.579626 -119.943515 163 30949ft 421kts
15-Apr-18 21:03 37.484779 -119.873584 163 30954ft 421kts
15-Apr-18 21:04 37.384501 -119.799820 163 30955ft 421kts
15-Apr-18 21:05 37.284957 -119.726788 163 30952ft 421kts
15-Apr-18 21:06 37.190632 -119.657769 163 30941ft 421kts
15-Apr-18 21:07 37.090344 -119.596272 183 30943ft 387kts
15-Apr-18 21:08 36.987097 -119.596167 190 30934ft 391kts
15-Apr-18 21:09 36.889306 -119.598145 189 30940ft 395kts
15-Apr-18 21:10 36.782803 -119.600107 189 30946ft 394kts
15-Apr-18 21:11 36.676404 -119.602024 189 30951ft 394kts
15-Apr-18 21:12 36.572922 -119.603857 189 30944ft 394kts
15-Apr-18 21:13 36.467437 -119.605657 190 30959ft 394kts
15-Apr-18 21:14 36.361191 -119.607517 190 30956ft 394kts
15-Apr-18 21:15 36.253310 -119.609398 190 30960ft 394kts
15-Apr-18 21:16 36.146575 -119.611026 190 30936ft 363kts
15-Apr-18 21:17 36.046652 -119.612834 190 30954ft 369kts
15-Apr-18 21:18 35.946507 -119.618679 198 30967ft 360kts
15-Apr-18 21:19 35.849216 -119.626540 186 30994ft 390kts
15-Apr-18 21:20 35.740901 -119.618857 186 30995ft 398kts
15-Apr-18 21:21 35.632394 -119.611006 185 28617ft 408kts
15-Apr-18 21:22 35.521354 -119.603028 184 27050ft 410kts
15-Apr-18 21:23 35.416051 -119.595153 185 25633ft 361kts
15-Apr-18 21:24 35.320532 -119.588286 185 24272ft 351kts
15-Apr-18 21:25 35.226444 -119.578488 170 23887ft 363kts
15-Apr-18 21:26 35.138698 -119.508674 154 23872ft 387kts
15-Apr-18 21:27 35.056226 -119.426920 150 23868ft 392kts
15-Apr-18 21:28 34.972853 -119.349676 160 22409ft 366kts
15-Apr-18 21:29 34.890121 -119.294484 160 20355ft 349kts
15-Apr-18 21:30 34.806046 -119.239074 160 18341ft 346kts
15-Apr-18 21:31 34.723515 -119.185029 159 16024ft 343kts
15-Apr-18 21:32 34.644318 -119.133242 158 14510ft 317kts
15-Apr-18 21:33 34.584488 -119.094345 159 13782ft 306kts
15-Apr-18 21:34 34.512989 -119.041181 149 11842ft 314kts
15-Apr-18 21:35 34.448170 -118.975193 141 10026ft 316kts
15-Apr-18 21:36 34.386026 -118.912272 151 9870ft 298kts
15-Apr-18 21:37 34.306192 -118.851453 151 8636ft 305kts
15-Apr-18 21:38 34.237332 -118.802026 147 6713ft 281kts
15-Apr-18 21:39 34.199369 -118.746451 109 5202ft 241kts
15-Apr-18 21:40 34.197691 -118.675323 84 4000ft 190kts
15-Apr-18 21:41 34.200681 -118.615058 94 4003ft 183kts
15-Apr-18 21:42 34.199740 -118.556199 89 3982ft 169kts
15-Apr-18 21:43 34.201786 -118.500354 90 2832ft 174kts
15-Apr-18 21:44 34.200312 -118.443102 95 1744ft 176kts
15-Apr-18 21:45 34.198236 -118.386834 92 1143ft 177kts
15-Apr-18 21:46 34.197373 -118.351294 129 785ft 13kts
15-Apr-18 21:47 34.196813 -118.351027 180 785ft 0kts
15-Apr-18 21:48 34.196814 -118.351027 180 785ft 0kts
15-Apr-18 21:49 34.196814 -118.351027 180 785ft 0kts

Navigation Log

Ident Type
Flight plan parsing failed, navigation log unavailable